Los Alamos, New Mexico
Current Conditions -  °F | °C
As of 2:55 AM on Wednesday 26 Nov 2014 (Local Time) from KLAM Reporting Station
Clear Clear  
Wind Chill: 31°   Ceiling: Unl
Heat Index: 31°   Visibility: 10mi
Dew Point: 12°   Wind: 0mph
Humidity: 46%   Direction: NA
Pressure: 30.29"   Gusts: NA
Location:  35.88°N, 106.3°W
Report Text: KLAM 260955Z AUTO 00000KT 10SM CLR M01/M11 A3029 RMK AO2 T10081111
Loading
Personal Weather Stations






























Interactive Weather Map New forecast layout! Learn more

10-Day Weather Forecast

Advertisements
Track Severe Weather on mobile